Gaslog data for 1995 Honda Civic DX

Go Back   Gas Savers - Fuel Efficiency Forum > Garage > 1995 Honda Civic DX
Add Garage Entry Top Ten Entries Search the Garage


Welcome, non logged-in user
Your Garage


Gaslog data for 1995 Honda Civic DX
Date Distance Fuel Used Cost of Fuel Notes MPG(US)
01/05/2011 372.95 8.969 3.029 41.58
12/20/2010 349.85 8.191 2.849 42.71
12/10/2010 338.8 8.467 2.799Winter has hit. Mostly single digit temps in the morning and the switch at the stations to the "winter blend" have really hit my fuel economy hard.40.01
11/23/2010 449.5 9.782 2.839 45.95
11/03/2010 430.65 9.34 2.629 46.10
10/26/2010 428.3 8.763 2.599 48.87
10/15/2010 416.6 8.587 2.769 48.51
10/03/2010 354.1 7.555 2.639 46.86
09/24/2010 300.19 5.826 2.539 51.52
09/20/2010 451.9 9.807 2.609 46.07
09/10/2010 328 6.409 2.509 51.17
09/04/2010 403.45 8.678 2.599 46.49
08/26/2010 403.76 9.156 2.399 44.09
08/20/2010 410.55 8.391 2.599 48.92
08/04/2010 66.8 1.547 2.799Quick fill to calibrate MPGuino so it is at least somewhat accurate. Will re-calibrate with next full tank.43.18
08/03/2010 141.1 3.241 2.589 43.53
07/31/2010 431.6 10.381 2.599 41.57
07/15/2010 359.2 8.037 2.529Was working on/recharging the A/C system, so there was a period of probably about 20 minutes of just idling on this tank. At least the A/C system works now!44.69
07/08/2010 368.5 8.467 2.499 43.52
07/01/2010 424.8 9.299 2.699 45.68
06/23/2010 415.4 9.537 2.859 43.55
06/10/2010 404.8 8.935 2.499First tank with part of the tank being the new commute after moving (longer and mostly highway). Tank also included a few trips with the car packed as full as possible with moving boxes and such.45.30
06/03/2010 334.9 8.177 2.519 40.95
05/23/2010 325.1 6.859 2.599Trip up to Toledo. Used the "Least Fuel" route in my GPS which basically meant I was doing 55-60mph most of the way. 47.39
05/20/2010 418.5 10.776 2.569 38.83
05/13/2010 385.4 9.617 2.669 40.07
04/27/2010 386 9.651 2.699 39.99
04/13/2010 340.5 8.179 2.659Lots of 70-75mph driving on this tank.41.63
04/09/2010 389.8 9.63 2.709 40.47
03/30/2010 290.9 7.033 2.559 41.36
03/20/2010 349.3 8.244 2.749Tried not to bog the engine as much. Some highway this tank, probably about a 50/50 mix.42.37
03/14/2010 336.5 8.629 2.549Basically normal driving.38.99
03/02/2010 297.3 7.285 2.539About 75% highway at 72-75 mph on my way to go pick up my Honda VX wheels.40.80
02/25/2010 279 8.208 2.619Lots of EOC this tank. Fresh oil change. Even raised tire pressure from ~25psi up to around 42psi. No heavy snow storms/traffic. I do not understand why this tank was low.33.99
02/11/2010 267.7 7.29 2.469Heavy snow storm in which car sat in traffic jam at idle for ~1 hr. on this tank. Other than a few other minor snow storms this was a pretty normal tank. Also changed the oil this same day at 145,021 miles on the car. Used Castrol Syntec Blend 5W-30 and a Fram Tough Guard filter (not my first choice, but was part of the sale price).36.72
01/30/2010 304.8 8.733 2.439Wife drove the car a bit on this tank (she does not hypermile... lol). Winter driving with a bit of snow also lowered results. Also included quite a bit of ~70mph highway driving.34.90
01/26/2010 172.7 4.451 2.359First fill-up since buying the car.38.80


All times are GMT -6. The time now is 01:00 AM.


Copyright 2005-2008 GasSavers.Org